createdAt,value
2023-03-27T00:02:26.242Z,99907.84
2023-03-27T00:04:55.750Z,99915.72
2023-03-27T00:07:23.419Z,99920.94
2023-03-27T00:09:53.474Z,99922.69
2023-03-27T00:12:21.103Z,99926.16
2023-03-27T00:14:48.711Z,99934.94
2023-03-27T00:17:16.335Z,99939.28
2023-03-27T00:19:43.938Z,99941.03
2023-03-27T00:22:11.740Z,99945.41
2023-03-27T00:24:39.391Z,99935.72
2023-03-27T00:27:09.127Z,99951.50
2023-03-27T00:29:37.061Z,99953.25
2023-03-27T00:32:04.985Z,99949.75
2023-03-27T00:34:32.624Z,99956.75
2023-03-27T00:37:00.345Z,99958.44
2023-03-27T00:39:28.676Z,99961.94
2023-03-27T00:41:56.467Z,99968.03
2023-03-27T00:44:27.577Z,99969.75
2023-03-27T00:46:57.172Z,99970.59
2023-03-27T00:49:29.139Z,99981.06
2023-03-27T00:51:59.010Z,99983.63
2023-03-27T00:54:31.703Z,99997.56
2023-03-27T00:57:05.319Z,99983.50
2023-03-27T00:59:38.058Z,99996.59
2023-03-27T01:02:07.563Z,100007.03
2023-03-27T01:04:38.290Z,100006.06
2023-03-27T01:07:11.215Z,100014.75
2023-03-27T01:09:40.225Z,100022.56
2023-03-27T01:12:17.001Z,100019.03
2023-03-27T01:14:58.203Z,100015.44
2023-03-27T01:17:42.510Z,100020.59
2023-03-27T01:20:48.750Z,100031.97
2023-03-27T01:23:59.142Z,100034.50
2023-03-27T01:26:51.615Z,100043.16
2023-03-27T01:29:25.650Z,100049.25
2023-03-27T01:32:11.755Z,100053.53
2023-03-27T01:35:04.776Z,100058.72
2023-03-27T01:37:58.800Z,100057.78
2023-03-27T01:40:33.475Z,100069.97
2023-03-27T01:43:05.290Z,100061.19
2023-03-27T01:45:39.225Z,100067.25
2023-03-27T01:48:14.223Z,100075.03
2023-03-27T01:50:46.723Z,100078.44
2023-03-27T01:53:18.741Z,100079.28
2023-03-27T01:55:51.482Z,100088.88
2023-03-27T01:58:23.586Z,100092.31
2023-03-27T02:00:56.534Z,100096.59
2023-03-27T02:03:30.136Z,100103.47
2023-03-27T02:06:04.485Z,100108.66
2023-03-27T02:08:37.636Z,100105.88
2023-03-27T02:11:16.341Z,100111.06
2023-03-27T02:13:48.798Z,100118.88
2023-03-27T02:16:21.219Z,100120.50
2023-03-27T02:18:54.585Z,100123.91
2023-03-27T02:21:23.602Z,100136.06
2023-03-27T02:23:51.636Z,100122.88
2023-03-27T02:26:20.792Z,100134.13
2023-03-27T02:29:03.139Z,100148.00
2023-03-27T02:31:42.433Z,100140.03
2023-03-27T02:34:29.073Z,100149.56
2023-03-27T02:37:03.857Z,100155.56
2023-03-27T02:39:59.320Z,100164.16
2023-03-27T02:42:36.708Z,100157.91
2023-03-27T02:45:11.244Z,100167.41
2023-03-27T02:47:43.313Z,100171.72
2023-03-27T02:50:17.919Z,100188.22
2023-03-27T02:52:51.255Z,100189.03
2023-03-27T02:55:22.348Z,100198.53
2023-03-27T02:57:56.574Z,100194.09
2023-03-27T03:00:34.434Z,100207.13
2023-03-27T03:03:34.786Z,100209.59
2023-03-27T03:06:11.224Z,100220.91
2023-03-27T03:08:39.582Z,100223.44
2023-03-27T03:11:13.479Z,100224.28
2023-03-27T03:13:42.570Z,100227.59
2023-03-27T03:16:11.407Z,100237.13
2023-03-27T03:18:40.743Z,100237.03
2023-03-27T03:21:08.583Z,100244.84
2023-03-27T03:23:36.473Z,100252.56
2023-03-27T03:26:04.761Z,100257.66
2023-03-27T03:29:00.764Z,100261.91
2023-03-27T03:31:43.231Z,100274.03
2023-03-27T03:34:11.723Z,100267.00
2023-03-27T03:36:41.928Z,100279.13
2023-03-27T03:39:11.463Z,100276.44
2023-03-27T03:41:39.274Z,100281.63
2023-03-27T03:44:08.396Z,100285.91
2023-03-27T03:46:36.190Z,100286.72
2023-03-27T03:49:04.901Z,100298.84
2023-03-27T03:51:33.049Z,100305.78
2023-03-27T03:54:01.333Z,100305.69
2023-03-27T03:56:30.574Z,100314.31
2023-03-27T03:58:58.906Z,100324.69
2023-03-27T04:01:28.068Z,100317.56
2023-03-27T04:04:00.686Z,100333.19
2023-03-27T04:06:37.768Z,100334.06
2023-03-27T04:09:05.962Z,100332.22
2023-03-27T04:11:59.657Z,100336.59
2023-03-27T04:14:46.493Z,100343.47
2023-03-27T04:17:35.898Z,100344.19
2023-03-27T04:20:06.234Z,100337.97
2023-03-27T04:22:37.849Z,100343.09
2023-03-27T04:25:09.415Z,100349.91
2023-03-27T04:27:37.003Z,100347.19
2023-03-27T04:30:16.054Z,100352.28
2023-03-27T04:33:08.114Z,100372.25
2023-03-27T04:37:56.464Z,100376.34
2023-03-27T04:40:54.488Z,100382.34
2023-03-27T04:43:26.125Z,100386.56
2023-03-27T04:45:54.878Z,100386.47
2023-03-27T04:48:23.336Z,100393.28
2023-03-27T04:50:55.536Z,100390.56
2023-03-27T04:53:37.738Z,100399.19
2023-03-27T04:56:08.454Z,100408.69
2023-03-27T04:58:41.092Z,100410.31
2023-03-27T05:01:13.705Z,100420.72
2023-03-27T05:03:58.892Z,100414.50
2023-03-27T05:06:43.383Z,100429.31
2023-03-27T05:09:17.634Z,100431.88
2023-03-27T05:11:49.674Z,100429.97
2023-03-27T05:14:17.828Z,100437.78
2023-03-27T05:16:46.039Z,100437.72
2023-03-27T05:19:13.861Z,100443.66
2023-03-27T05:21:46.291Z,100444.41
2023-03-27T05:24:16.432Z,100450.44
2023-03-27T05:26:45.991Z,100465.25
2023-03-27T05:29:14.353Z,100463.44
2023-03-27T05:31:46.105Z,100461.69
2023-03-27T05:34:34.648Z,100472.84
2023-03-27T05:37:06.880Z,100472.78
2023-03-27T05:39:46.212Z,100476.19
2023-03-27T05:42:14.129Z,100481.38
2023-03-27T05:44:43.375Z,100486.66
2023-03-27T05:47:11.502Z,100490.13
2023-03-27T05:49:39.304Z,100492.81
2023-03-27T05:52:11.829Z,100500.59
2023-03-27T05:54:39.628Z,100500.53
2023-03-27T05:57:12.730Z,100500.66
2023-03-27T05:59:41.875Z,100500.69
2023-03-27T06:02:21.449Z,100515.63
2023-03-27T06:04:59.112Z,100512.16
2023-03-27T06:07:30.947Z,100512.25
2023-03-27T06:10:03.661Z,100520.22
2023-03-27T06:12:36.865Z,100521.28
2023-03-27T06:15:25.690Z,100525.75
2023-03-27T06:18:08.264Z,100531.94
2023-03-27T06:20:38.203Z,100525.88
2023-03-27T06:23:08.265Z,100536.38
2023-03-27T06:25:41.096Z,100541.69
2023-03-27T06:28:14.219Z,100542.59
2023-03-27T06:30:50.409Z,100547.97
2023-03-27T06:33:26.332Z,100548.00
2023-03-27T06:36:02.054Z,100549.00
2023-03-27T06:38:37.767Z,100553.44
2023-03-27T06:41:06.803Z,100560.63
2023-03-27T06:43:54.755Z,100561.69
2023-03-27T06:46:45.458Z,100565.34
2023-03-27T06:49:29.124Z,100567.22
2023-03-27T06:51:57.647Z,100576.94
2023-03-27T06:54:25.539Z,100580.59
2023-03-27T06:56:56.389Z,100580.75
2023-03-27T06:59:26.892Z,100584.44
2023-03-27T07:02:02.685Z,100593.31
2023-03-27T07:05:03.797Z,100595.25
2023-03-27T07:07:41.420Z,100601.53
2023-03-27T07:10:11.622Z,100606.09
2023-03-27T07:12:41.365Z,100605.41
2023-03-27T07:15:12.702Z,100603.00
2023-03-27T07:17:49.160Z,100597.06
2023-03-27T07:20:20.483Z,100599.00
2023-03-27T07:22:48.578Z,100593.09
2023-03-27T07:25:38.361Z,100610.78
2023-03-27T07:28:16.818Z,100607.47
2023-03-27T07:30:46.707Z,100608.53
2023-03-27T07:33:15.133Z,100616.59
2023-03-27T07:35:43.974Z,100619.41
2023-03-27T07:38:31.971Z,100618.72
2023-03-27T07:41:13.761Z,100614.53
2023-03-27T07:44:05.240Z,100613.09
2023-03-27T07:46:45.103Z,100614.19
2023-03-27T07:49:17.825Z,100610.84
2023-03-27T07:51:46.075Z,100617.13
2023-03-27T07:54:15.456Z,100619.06
2023-03-27T07:56:48.909Z,100618.38
2023-03-27T07:59:33.871Z,100618.59
2023-03-27T08:02:16.020Z,100624.09
2023-03-27T08:04:43.920Z,100626.03
2023-03-27T08:07:12.257Z,100630.50
2023-03-27T08:09:44.869Z,100629.75
2023-03-27T08:12:13.881Z,100625.63
2023-03-27T08:14:45.750Z,100631.06
2023-03-27T08:17:22.371Z,100641.88
2023-03-27T08:19:50.971Z,100644.84
2023-03-27T08:22:30.412Z,100652.13
2023-03-27T08:25:43.231Z,100642.59
2023-03-27T08:28:14.144Z,100641.16
2023-03-27T08:30:53.962Z,100640.78
2023-03-27T08:33:45.948Z,100643.75
2023-03-27T08:36:25.979Z,100639.09
2023-03-27T08:39:09.124Z,100643.09
2023-03-27T08:42:01.050Z,100651.19
2023-03-27T08:44:48.775Z,100651.22
2023-03-27T08:47:27.821Z,100657.50
2023-03-27T08:50:22.679Z,100656.91
2023-03-27T08:53:01.619Z,100662.19
2023-03-27T08:55:56.487Z,100661.63
2023-03-27T08:58:43.549Z,100667.22
2023-03-27T09:01:36.805Z,100663.78
2023-03-27T09:04:26.141Z,100663.06
2023-03-27T09:07:15.670Z,100661.38
2023-03-27T09:10:07.508Z,100664.84
2023-03-27T09:13:02.804Z,100669.25
2023-03-27T09:15:51.326Z,100665.09
2023-03-27T09:18:25.476Z,100664.63
2023-03-27T09:21:10.973Z,100673.59
2023-03-27T09:23:44.947Z,100676.47
2023-03-27T09:26:46.528Z,100676.31
2023-03-27T09:29:41.867Z,100684.50
2023-03-27T09:32:57.173Z,100679.75
2023-03-27T09:35:30.100Z,100682.28
2023-03-27T09:38:04.178Z,100689.19
2023-03-27T09:40:55.600Z,100685.09
2023-03-27T09:43:36.225Z,100686.34
2023-03-27T09:46:11.499Z,100678.94
2023-03-27T09:48:57.021Z,100687.34
2023-03-27T09:51:55.311Z,100687.75
2023-03-27T09:54:53.646Z,100684.56
2023-03-27T09:57:34.001Z,100685.72
2023-03-27T10:00:13.424Z,100686.78
2023-03-27T10:03:01.125Z,100684.19
2023-03-27T10:05:30.376Z,100682.44
2023-03-27T10:07:59.183Z,100687.81
2023-03-27T10:10:57.660Z,100685.28
2023-03-27T10:13:48.808Z,100674.81
2023-03-27T10:16:22.771Z,100691.75
2023-03-27T10:19:00.952Z,100681.25
2023-03-27T10:21:36.307Z,100686.66
2023-03-27T10:24:08.381Z,100674.31
2023-03-27T10:26:54.729Z,100675.22
2023-03-27T10:29:27.366Z,100684.09
2023-03-27T10:31:56.931Z,100679.69
2023-03-27T10:34:58.505Z,100679.72
2023-03-27T10:37:50.484Z,100678.81
2023-03-27T10:40:38.816Z,100686.78
2023-03-27T10:43:25.544Z,100689.44
2023-03-27T10:45:57.524Z,100700.03
2023-03-27T10:48:37.330Z,100697.38
2023-03-27T10:51:09.229Z,100691.22
2023-03-27T10:53:58.820Z,100694.75
2023-03-27T10:56:47.002Z,100700.06
2023-03-27T10:59:28.072Z,100680.59
2023-03-27T11:02:14.917Z,100684.13
2023-03-27T11:04:50.035Z,100692.09
2023-03-27T11:07:26.809Z,100683.25
2023-03-27T11:10:03.632Z,100692.97
2023-03-27T11:12:38.006Z,100689.41
2023-03-27T11:15:14.722Z,100700.06
2023-03-27T11:17:49.325Z,100722.16
2023-03-27T11:20:44.276Z,100737.13
2023-03-27T11:23:33.952Z,100733.47
2023-03-27T11:26:23.234Z,100735.97
2023-03-27T11:28:57.580Z,100744.72
2023-03-27T11:31:40.209Z,100752.66
2023-03-27T11:34:29.087Z,100756.13
2023-03-27T11:37:05.865Z,100761.31
2023-03-27T11:39:49.285Z,100794.63
2023-03-27T11:42:21.977Z,100812.72
2023-03-27T11:44:51.458Z,100813.94
2023-03-27T11:48:13.814Z,100833.38
2023-03-27T11:50:56.818Z,100846.91
2023-03-27T11:53:41.216Z,100840.16
2023-03-27T11:56:25.429Z,100845.53
2023-03-27T11:59:19.440Z,100838.03
2023-03-27T12:02:04.825Z,100831.16
2023-03-27T12:04:45.685Z,100823.72
2023-03-27T12:07:46.552Z,100817.91
2023-03-27T12:10:29.239Z,100807.88
2023-03-27T12:13:46.149Z,100811.25
2023-03-27T12:16:41.383Z,100804.81
2023-03-27T12:19:31.032Z,100800.78
2023-03-27T12:22:24.993Z,100795.81
2023-03-27T12:25:22.883Z,100796.97
2023-03-27T12:28:37.755Z,100797.19
2023-03-27T12:31:37.721Z,100798.16
2023-03-27T12:34:07.099Z,100803.44
2023-03-27T12:36:38.926Z,100802.66
2023-03-27T12:39:16.151Z,100801.91
2023-03-27T12:41:46.838Z,100806.47
2023-03-27T12:44:30.987Z,100802.91
2023-03-27T12:47:09.065Z,100803.03
2023-03-27T12:49:47.922Z,100807.50
2023-03-27T12:52:25.482Z,100803.03
2023-03-27T12:55:28.316Z,100805.63
2023-03-27T12:57:57.884Z,100802.94
2023-03-27T13:01:00.350Z,100798.47
2023-03-27T13:04:06.968Z,100804.66
2023-03-27T13:06:45.636Z,100807.34
2023-03-27T13:09:29.933Z,100802.03
2023-03-27T13:12:19.761Z,100806.53
2023-03-27T13:15:14.542Z,100809.25
2023-03-27T13:17:56.953Z,100812.03
2023-03-27T13:20:37.235Z,100810.31
2023-03-27T13:23:19.635Z,100802.41
2023-03-27T13:26:14.325Z,100803.41
2023-03-27T13:28:49.019Z,100806.97
2023-03-27T13:31:51.349Z,100799.88
2023-03-27T13:34:42.698Z,100809.66
2023-03-27T13:37:43.494Z,100814.06
2023-03-27T13:40:24.495Z,100817.59
2023-03-27T13:43:11.140Z,100819.41
2023-03-27T13:45:46.858Z,100820.28
2023-03-27T13:49:11.281Z,100808.78
2023-03-27T13:52:06.238Z,100805.31
2023-03-27T13:54:55.297Z,100809.72
2023-03-27T13:57:49.754Z,100806.19
2023-03-27T14:00:43.879Z,100805.31
2023-03-27T14:03:49.069Z,100803.53
2023-03-27T14:06:51.942Z,100797.38
2023-03-27T14:09:35.367Z,100788.53
2023-03-27T14:12:15.458Z,100782.31
2023-03-27T14:15:22.236Z,100792.09
2023-03-27T14:18:32.679Z,100804.41
2023-03-27T14:21:03.384Z,100802.63
2023-03-27T14:23:48.266Z,100811.47
2023-03-27T14:26:33.722Z,100815.00
2023-03-27T14:29:03.468Z,100824.72
2023-03-27T14:31:51.585Z,100843.19
2023-03-27T14:34:43.789Z,100882.81
2023-03-27T14:37:39.550Z,100871.00
2023-03-27T14:40:32.747Z,100877.72
2023-03-27T14:43:07.978Z,100875.75
2023-03-27T14:45:40.300Z,100889.72
2023-03-27T14:48:21.139Z,100894.03
2023-03-27T14:50:54.369Z,100896.50
2023-03-27T14:53:27.087Z,100900.78
2023-03-27T14:56:25.566Z,100910.56
2023-03-27T14:58:57.340Z,100909.91
2023-03-27T15:01:26.668Z,100907.44
2023-03-27T15:03:56.367Z,100907.59
2023-03-27T15:06:26.368Z,100913.16
2023-03-27T15:09:05.340Z,100903.63
2023-03-27T15:11:56.134Z,100913.25
2023-03-27T15:14:31.443Z,100943.97
2023-03-27T15:17:02.878Z,100962.16
2023-03-27T15:19:45.551Z,100965.97
2023-03-27T15:22:24.475Z,100989.84
2023-03-27T15:24:56.736Z,101000.44
2023-03-27T15:27:28.140Z,100980.28
2023-03-27T15:30:00.622Z,100930.63
2023-03-27T15:32:46.378Z,100914.53
2023-03-27T15:35:18.254Z,100910.03
2023-03-27T15:37:46.366Z,100920.69
2023-03-27T15:40:41.778Z,100921.66
2023-03-27T15:43:22.818Z,100933.06
2023-03-27T15:46:02.632Z,100933.94
2023-03-27T15:48:32.227Z,100938.16
2023-03-27T15:51:02.268Z,100934.69
2023-03-27T15:53:38.593Z,100934.88
2023-03-27T15:56:17.150Z,100934.94
2023-03-27T15:58:49.242Z,100928.03
2023-03-27T16:01:21.525Z,100936.09
2023-03-27T16:03:51.292Z,100940.47
2023-03-27T16:06:30.671Z,100949.25
2023-03-27T16:08:58.975Z,100951.03
2023-03-27T16:11:40.466Z,100936.06
2023-03-27T16:14:22.562Z,100945.53
2023-03-27T16:16:55.487Z,100938.19
2023-03-27T16:19:23.088Z,100950.38
2023-03-27T16:21:58.171Z,100946.59
2023-03-27T16:24:26.044Z,100950.69
2023-03-27T16:26:54.868Z,100949.53
2023-03-27T16:29:22.871Z,100957.16
2023-03-27T16:31:51.929Z,100953.47
2023-03-27T16:34:22.863Z,100951.53
2023-03-27T16:36:50.768Z,100951.41
2023-03-27T16:39:18.407Z,100960.91
2023-03-27T16:41:46.342Z,100967.84
2023-03-27T16:44:13.974Z,100957.28
2023-03-27T16:46:41.685Z,100973.88
2023-03-27T16:49:13.512Z,100971.84
2023-03-27T16:51:41.161Z,100994.50
2023-03-27T16:54:08.742Z,100983.75
2023-03-27T16:56:36.761Z,100993.34
2023-03-27T16:59:04.732Z,100995.88
2023-03-27T17:01:32.378Z,100999.41
2023-03-27T17:04:00.005Z,101005.50
2023-03-27T17:06:28.964Z,101009.97
2023-03-27T17:08:56.589Z,101009.97
2023-03-27T17:11:24.287Z,101012.59
2023-03-27T17:13:52.640Z,101009.03
2023-03-27T17:16:20.322Z,101004.44
2023-03-27T17:18:48.086Z,100998.16
2023-03-27T17:21:15.680Z,101008.50
2023-03-27T17:23:48.260Z,101006.50
2023-03-27T17:26:22.755Z,101013.31
2023-03-27T17:28:50.516Z,101015.91
2023-03-27T17:31:18.233Z,101015.88
2023-03-27T17:33:45.922Z,101014.06
2023-03-27T17:36:15.739Z,101018.25
2023-03-27T17:38:44.933Z,101020.81
2023-03-27T17:41:14.586Z,101019.84
2023-03-27T17:43:42.217Z,101019.63
2023-03-27T17:46:10.076Z,101027.25
2023-03-27T17:48:37.932Z,101028.84
2023-03-27T17:51:09.251Z,101033.91
2023-03-27T17:53:38.102Z,101035.38
2023-03-27T17:56:08.455Z,101029.88
2023-03-27T17:58:36.990Z,101032.34
2023-03-27T18:01:16.459Z,101045.34
2023-03-27T18:03:45.213Z,101046.03
2023-03-27T18:06:13.306Z,101037.03
2023-03-27T18:08:41.446Z,101034.22
2023-03-27T18:11:12.733Z,101034.75
2023-03-27T18:13:41.232Z,101037.16
2023-03-27T18:16:10.912Z,101042.28
2023-03-27T18:18:39.992Z,101050.88
2023-03-27T18:21:09.431Z,101062.94
2023-03-27T18:23:46.109Z,101054.97
2023-03-27T18:26:16.572Z,101070.66
2023-03-27T18:28:44.485Z,101053.91
2023-03-27T18:31:13.265Z,101057.34
2023-03-27T18:33:41.141Z,101051.00
2023-03-27T18:36:10.836Z,101048.25
2023-03-27T18:38:40.114Z,101056.88
2023-03-27T18:41:08.466Z,101062.84
2023-03-27T18:43:37.520Z,101049.63
2023-03-27T18:46:07.149Z,101059.97
2023-03-27T18:48:35.398Z,101054.66
2023-03-27T18:51:04.629Z,101054.53
2023-03-27T18:53:32.383Z,101050.03
2023-03-27T18:56:00.847Z,101057.84
2023-03-27T18:58:30.218Z,101056.06
2023-03-27T19:00:59.987Z,101059.47
2023-03-27T19:03:30.411Z,101065.44
2023-03-27T19:06:02.157Z,101056.56
2023-03-27T19:08:30.723Z,101062.59
2023-03-27T19:10:58.520Z,101066.00
2023-03-27T19:13:45.025Z,101067.59
2023-03-27T19:16:26.918Z,101061.31
2023-03-27T19:19:13.305Z,101061.97
2023-03-27T19:22:01.281Z,101069.78
2023-03-27T19:24:48.691Z,101063.53
2023-03-27T19:27:23.656Z,101070.47
2023-03-27T19:29:52.740Z,101068.47
2023-03-27T19:32:21.860Z,101068.34
2023-03-27T19:34:49.483Z,101076.88
2023-03-27T19:37:17.296Z,101068.84
2023-03-27T19:39:44.903Z,101075.63
2023-03-27T19:42:12.579Z,101077.44
2023-03-27T19:44:40.192Z,101075.53
2023-03-27T19:47:09.635Z,101073.63
2023-03-27T19:49:38.644Z,101076.19
2023-03-27T19:52:19.808Z,101075.22
2023-03-27T19:54:47.584Z,101081.25
2023-03-27T19:57:15.515Z,101080.22
2023-03-27T19:59:43.168Z,101083.63
2023-03-27T20:02:12.244Z,101080.88
2023-03-27T20:04:41.349Z,101074.69
2023-03-27T20:07:10.139Z,101067.66
2023-03-27T20:09:38.259Z,101072.84
2023-03-27T20:12:06.781Z,101071.06
2023-03-27T20:14:34.401Z,101064.88
2023-03-27T20:17:02.059Z,101069.22
2023-03-27T20:19:30.466Z,101063.91
2023-03-27T20:22:02.183Z,101062.97
2023-03-27T20:24:29.828Z,101064.69
2023-03-27T20:27:02.120Z,101069.88
2023-03-27T20:29:29.848Z,101069.81
2023-03-27T20:31:57.548Z,101071.47
2023-03-27T20:34:25.231Z,101077.59
2023-03-27T20:36:54.899Z,101068.91
2023-03-27T20:39:44.668Z,101066.22
2023-03-27T20:42:14.995Z,101062.72
2023-03-27T20:44:43.744Z,101067.91
2023-03-27T20:47:12.359Z,101066.16
2023-03-27T20:49:44.176Z,101067.06
2023-03-27T20:52:14.399Z,101062.72
2023-03-27T20:54:43.374Z,101073.31
2023-03-27T20:57:12.821Z,101075.88
2023-03-27T20:59:40.597Z,101067.97
2023-03-27T21:02:08.340Z,101063.56
2023-03-27T21:04:36.300Z,101072.22
2023-03-27T21:07:05.114Z,101078.31
2023-03-27T21:09:32.797Z,101076.50
2023-03-27T21:12:02.002Z,101075.63
2023-03-27T21:14:29.582Z,101083.47
2023-03-27T21:16:57.258Z,101073.06
2023-03-27T21:19:24.925Z,101079.19
2023-03-27T21:21:52.865Z,101084.44
2023-03-27T21:24:20.791Z,101081.00
2023-03-27T21:26:49.445Z,101083.63
2023-03-27T21:29:20.837Z,101086.38
2023-03-27T21:31:48.559Z,101093.44
2023-03-27T21:34:16.306Z,101093.38
2023-03-27T21:36:44.054Z,101088.91
2023-03-27T21:39:11.777Z,101087.19
2023-03-27T21:41:39.432Z,101074.03
2023-03-27T21:44:07.035Z,101078.31
2023-03-27T21:46:36.089Z,101078.13
2023-03-27T21:49:03.735Z,101076.34
2023-03-27T21:51:31.382Z,101067.50
2023-03-27T21:53:58.960Z,101063.94
2023-03-27T21:56:26.622Z,101072.59
2023-03-27T21:58:57.294Z,101068.94
2023-03-27T22:01:25.081Z,101057.50
2023-03-27T22:03:54.141Z,101060.91
2023-03-27T22:06:21.851Z,101067.84
2023-03-27T22:08:49.471Z,101066.06
2023-03-27T22:11:17.303Z,101082.59
2023-03-27T22:13:46.519Z,101081.72
2023-03-27T22:16:16.772Z,101082.53
2023-03-27T22:18:45.079Z,101090.50
2023-03-27T22:21:17.678Z,101081.84
2023-03-27T22:23:50.790Z,101074.13
2023-03-27T22:26:19.193Z,101072.31
2023-03-27T22:28:46.884Z,101070.59
2023-03-27T22:31:14.656Z,101086.28
2023-03-27T22:33:42.386Z,101090.78
2023-03-27T22:36:11.833Z,101086.44
2023-03-27T22:38:41.340Z,101078.56
2023-03-27T22:41:12.248Z,101076.78
2023-03-27T22:43:40.148Z,101087.22
2023-03-27T22:46:09.462Z,101089.75
2023-03-27T22:48:37.204Z,101097.63
2023-03-27T22:51:05.538Z,101095.09
2023-03-27T22:53:33.774Z,101100.34
2023-03-27T22:56:03.537Z,101105.56
2023-03-27T22:58:31.580Z,101115.22
2023-03-27T23:00:59.811Z,101118.78
2023-03-27T23:03:28.491Z,101116.31
2023-03-27T23:05:56.361Z,101122.50
2023-03-27T23:08:27.141Z,101136.56
2023-03-27T23:10:56.326Z,101141.81
2023-03-27T23:13:26.176Z,101144.66
2023-03-27T23:15:54.176Z,101139.41
2023-03-27T23:18:24.617Z,101145.59
2023-03-27T23:20:56.188Z,101135.06
2023-03-27T23:23:23.947Z,101130.59
2023-03-27T23:25:51.954Z,101130.47
2023-03-27T23:28:19.774Z,101136.44
2023-03-27T23:30:55.082Z,101139.72
2023-03-27T23:33:24.929Z,101130.91
2023-03-27T23:35:53.293Z,101143.00
2023-03-27T23:38:21.240Z,101150.63
2023-03-27T23:40:55.604Z,101143.56
2023-03-27T23:43:23.391Z,101146.06
2023-03-27T23:45:51.089Z,101145.97
2023-03-27T23:48:20.407Z,101155.50
2023-03-27T23:50:48.586Z,101164.09
2023-03-27T23:53:16.215Z,101154.47
2023-03-27T23:55:43.846Z,101160.53
2023-03-27T23:58:11.419Z,101166.59
